Time;durP1;ratioP1;P1;durP2;ratioP2;P2;SDS_P1;SDS_P2;PMS_P1;PMS_P2;Temp;Humidity;BMP_temperature;BMP_pressure;BME280_temperature;BME280_humidity;BME280_pressure;Samples;Min_cycle;Max_cycle;Signal;HPM_P1;HPM_P2
2023/10/14 00:00:41;;;;;;;23.92;12.55;;;;;;;;;;5012402;28;20022;-53
2023/10/14 00:03:24;;;;;;;22.75;12.35;;;;;;;;;;5010485;28;20021;-53
2023/10/14 00:05:50;;;;;;;22.92;12.80;;;;;;;;;;5009071;28;20030;-53
2023/10/14 00:08:16;;;;;;;23.00;11.80;;;;;;;;;;5012304;28;20044;-55
2023/10/14 00:10:43;;;;;;;18.73;11.82;;;;;;;;;;5012275;28;20025;-50
2023/10/14 00:13:11;;;;;;;23.65;12.60;;;;;;;;;;5012455;28;20053;-55
2023/10/14 00:15:40;;;;;;;20.80;12.52;;;;;;;;;;5012209;28;20026;-54
2023/10/14 00:18:09;;;;;;;20.15;11.48;;;;;;;;;;5012142;28;20018;-54
2023/10/14 00:20:35;;;;;;;20.80;11.82;;;;;;;;;;5010761;28;20022;-54
2023/10/14 00:23:04;;;;;;;21.65;12.32;;;;;;;;;;5004077;28;20022;-56
2023/10/14 00:25:34;;;;;;;21.40;12.20;;;;;;;;;;5010861;28;20021;-49
2023/10/14 00:28:13;;;;;;;21.58;12.15;;;;;;;;;;5011785;28;20403;-51
2023/10/14 00:30:40;;;;;;;22.20;12.88;;;;;;;;;;5011730;28;20498;-51
2023/10/14 00:33:06;;;;;;;22.02;11.80;;;;;;;;;;5011877;28;20117;-54
2023/10/14 00:35:32;;;;;;;21.98;12.45;;;;;;;;;;5011896;28;20071;-55
2023/10/14 00:38:08;;;;;;;18.58;11.25;;;;;;;;;;5011981;28;20033;-54
2023/10/14 00:40:37;;;;;;;18.15;10.82;;;;;;;;;;5010273;28;20026;-54
2023/10/14 00:43:04;;;;;;;19.48;16.10;;;;;;;;;;5011807;28;20021;-54
2023/10/14 00:45:30;;;;;;;25.80;23.30;;;;;;;;;;5012014;28;20029;-54
2023/10/14 00:47:59;;;;;;;23.90;17.70;;;;;;;;;;5010325;28;20030;-50
2023/10/14 00:50:35;;;;;;;20.42;18.52;;;;;;;;;;5011639;28;20108;-49
2023/10/14 00:53:05;;;;;;;18.20;16.40;;;;;;;;;;5011772;28;20026;-53
2023/10/14 00:55:41;;;;;;;18.70;16.90;;;;;;;;;;5001926;28;20033;-49
2023/10/14 00:58:08;;;;;;;15.07;12.65;;;;;;;;;;5009795;28;20037;-52
2023/10/14 01:00:37;;;;;;;15.40;13.55;;;;;;;;;;5003437;28;20010;-52
2023/10/14 01:03:07;;;;;;;15.88;14.18;;;;;;;;;;5011430;28;20037;-51
2023/10/14 01:05:36;;;;;;;16.80;15.10;;;;;;;;;;5010528;28;20545;-54
2023/10/14 01:08:03;;;;;;;;;;;;;;;;;;5012138;28;20439;-50
2023/10/14 01:10:29;;;;;;;14.68;11.80;;;;;;;;;;5011373;28;19912;-51
2023/10/14 01:12:56;;;;;;;14.93;12.50;;;;;;;;;;5011556;28;20025;-51
2023/10/14 01:15:22;;;;;;;15.10;12.88;;;;;;;;;;5011571;28;20033;-57
2023/10/14 01:17:49;;;;;;;16.38;14.60;;;;;;;;;;5010320;28;20018;-50
2023/10/14 01:22:43;;;;;;;15.40;13.40;;;;;;;;;;5012025;28;20033;-55
2023/10/14 01:25:15;;;;;;;15.18;13.10;;;;;;;;;;5011652;28;20441;-55
2023/10/14 01:27:43;;;;;;;15.95;14.25;;;;;;;;;;5011338;28;20030;-54
2023/10/14 01:30:25;;;;;;;16.20;14.50;;;;;;;;;;5011195;28;20052;-56
2023/10/14 01:32:52;;;;;;;16.27;14.57;;;;;;;;;;5011485;28;20085;-56
2023/10/14 01:35:32;;;;;;;15.40;13.52;;;;;;;;;;4987286;28;20018;-57
2023/10/14 01:37:59;;;;;;;15.38;13.27;;;;;;;;;;5011235;28;20064;-51
2023/10/14 01:42:56;;;;;;;14.90;12.45;;;;;;;;;;5011181;28;20059;-53
2023/10/14 01:45:39;;;;;;;14.90;12.40;;;;;;;;;;5011253;28;20076;-54
2023/10/14 01:50:37;;;;;;;14.75;11.85;;;;;;;;;;5010819;28;20022;-55
2023/10/14 01:53:10;;;;;;;14.40;11.00;;;;;;;;;;5012193;28;20022;-53
2023/10/14 01:55:36;;;;;;;14.23;10.43;;;;;;;;;;5014764;28;20052;-57
2023/10/14 01:58:03;;;;;;;14.10;10.25;;;;;;;;;;5013449;28;20486;-56
2023/10/14 02:00:39;;;;;;;15.27;11.05;;;;;;;;;;5008311;28;20029;-55
2023/10/14 02:03:06;;;;;;;13.77;9.30;;;;;;;;;;5015107;28;20491;-52
2023/10/14 02:05:34;;;;;;;13.63;8.75;;;;;;;;;;5015141;28;20135;-54
2023/10/14 02:08:01;;;;;;;13.60;8.50;;;;;;;;;;5014515;28;20488;-57
2023/10/14 02:10:35;;;;;;;13.45;8.35;;;;;;;;;;5006495;28;20165;-54
2023/10/14 02:13:01;;;;;;;13.88;8.80;;;;;;;;;;5013381;28;20026;-56
2023/10/14 02:15:27;;;;;;;13.45;8.23;;;;;;;;;;5014584;28;20029;-56
2023/10/14 02:17:54;;;;;;;13.35;8.00;;;;;;;;;;5012866;28;20044;-54
2023/10/14 02:20:20;;;;;;;12.98;7.60;;;;;;;;;;5013153;28;20025;-56
2023/10/14 02:22:49;;;;;;;12.48;7.28;;;;;;;;;;5014539;28;20475;-54
2023/10/14 02:25:15;;;;;;;12.73;7.40;;;;;;;;;;5009892;28;20025;-57
2023/10/14 02:27:43;;;;;;;12.27;7.18;;;;;;;;;;5009309;28;20037;-56
2023/10/14 02:30:09;;;;;;;12.35;7.18;;;;;;;;;;5013994;28;20030;-55
2023/10/14 02:32:35;;;;;;;12.05;7.00;;;;;;;;;;5013236;28;20025;-51
2023/10/14 02:35:02;;;;;;;12.82;7.40;;;;;;;;;;5015053;28;20088;-54
2023/10/14 02:37:28;;;;;;;13.00;7.63;;;;;;;;;;5016606;28;20017;-52
2023/10/14 02:39:54;;;;;;;12.68;7.38;;;;;;;;;;5015888;28;20395;-55
2023/10/14 02:42:20;;;;;;;13.32;7.82;;;;;;;;;;5014881;28;20018;-54
2023/10/14 02:44:52;;;;;;;13.63;8.45;;;;;;;;;;5007934;28;20114;-52
2023/10/14 02:47:21;;;;;;;13.57;8.52;;;;;;;;;;4997864;28;20095;-52
2023/10/14 02:49:55;;;;;;;13.65;8.90;;;;;;;;;;5013566;28;20051;-50
2023/10/14 02:52:28;;;;;;;13.68;9.00;;;;;;;;;;5013704;28;20010;-54
2023/10/14 02:54:55;;;;;;;15.60;13.80;;;;;;;;;;5013529;28;20120;-52
2023/10/14 02:57:27;;;;;;;15.60;13.90;;;;;;;;;;5013625;28;20038;-55
2023/10/14 02:59:57;;;;;;;15.40;13.50;;;;;;;;;;5005142;28;20025;-54
2023/10/14 03:02:25;;;;;;;15.00;12.43;;;;;;;;;;5013722;28;20412;-52
2023/10/14 03:07:31;;;;;;;14.48;11.07;;;;;;;;;;5013314;28;20495;-56
2023/10/14 03:10:19;;;;;;;14.20;10.48;;;;;;;;;;5011797;28;20076;-56
2023/10/14 03:12:49;;;;;;;13.85;9.40;;;;;;;;;;5013548;28;20018;-54
2023/10/14 03:15:19;;;;;;;14.55;11.20;;;;;;;;;;5013241;28;20037;-54
2023/10/14 03:18:03;;;;;;;14.50;11.10;;;;;;;;;;5013193;28;20033;-55
2023/10/14 03:23:00;;;;;;;15.00;10.98;;;;;;;;;;5013030;28;20029;-54
2023/10/14 03:25:29;;;;;;;13.95;9.85;;;;;;;;;;5011211;28;20026;-55
2023/10/14 03:28:00;;;;;;;45.70;12.38;;;;;;;;;;5012475;28;20034;-54
2023/10/14 03:30:27;;;;;;;13.73;8.95;;;;;;;;;;5012817;28;20367;-52
2023/10/14 03:32:54;;;;;;;13.70;9.00;;;;;;;;;;5012866;28;20061;-53
2023/10/14 03:35:21;;;;;;;14.93;10.55;;;;;;;;;;5012891;28;20588;-55
2023/10/14 03:37:53;;;;;;;13.15;7.70;;;;;;;;;;5012601;28;20391;-54
2023/10/14 03:43:07;;;;;;;16.88;8.57;;;;;;;;;;5012819;28;20475;-53
2023/10/14 03:45:33;;;;;;;18.80;7.90;;;;;;;;;;5011608;28;20372;-54
2023/10/14 03:48:00;;;;;;;19.67;8.73;;;;;;;;;;5012219;28;20531;-55
2023/10/14 03:50:28;;;;;;;17.38;7.85;;;;;;;;;;5012518;28;20026;-52
2023/10/14 03:52:54;;;;;;;14.82;7.18;;;;;;;;;;5012635;28;20053;-53
2023/10/14 03:55:24;;;;;;;19.60;7.03;;;;;;;;;;5012465;28;20026;-53
2023/10/14 03:57:51;;;;;;;19.17;7.90;;;;;;;;;;5012592;28;20447;-56
2023/10/14 04:00:36;;;;;;;20.48;8.10;;;;;;;;;;4996216;28;20014;-57
2023/10/14 04:03:03;;;;;;;18.38;7.32;;;;;;;;;;5012236;28;20025;-56
2023/10/14 04:05:30;;;;;;;15.00;6.85;;;;;;;;;;5012360;28;20014;-53
2023/10/14 04:07:57;;;;;;;24.60;8.07;;;;;;;;;;5002715;28;20066;-52
2023/10/14 04:10:23;;;;;;;17.90;8.05;;;;;;;;;;5010890;28;20053;-54
2023/10/14 04:13:04;;;;;;;16.35;6.50;;;;;;;;;;5012358;28;20515;-54
2023/10/14 04:17:56;;;;;;;14.23;6.70;;;;;;;;;;5012108;28;20731;-53
2023/10/14 04:20:23;;;;;;;18.33;6.20;;;;;;;;;;5010551;28;20014;-52
2023/10/14 04:22:52;;;;;;;20.77;5.97;;;;;;;;;;5012179;28;20033;-52
2023/10/14 04:25:19;;;;;;;13.70;6.05;;;;;;;;;;5010601;28;20022;-54
2023/10/14 04:30:25;;;;;;;19.63;5.70;;;;;;;;;;5011770;28;20049;-57
2023/10/14 04:33:04;;;;;;;18.90;6.65;;;;;;;;;;5013051;28;20075;-57
2023/10/14 04:35:32;;;;;;;15.27;6.10;;;;;;;;;;5010508;28;20026;-57
2023/10/14 04:38:02;;;;;;;23.10;5.93;;;;;;;;;;5010437;28;20022;-53
2023/10/14 04:45:52;;;;;;;22.52;6.30;;;;;;;;;;5011815;28;20488;-53
2023/10/14 04:51:06;;;;;;;17.45;6.93;;;;;;;;;;5011538;28;20057;-56
2023/10/14 04:53:32;;;;;;;12.38;5.07;;;;;;;;;;5011779;28;20479;-53
2023/10/14 04:56:21;;;;;;;12.35;5.43;;;;;;;;;;5010812;28;20068;-53
2023/10/14 04:58:47;;;;;;;17.23;6.18;;;;;;;;;;5002946;28;20459;-55
2023/10/14 05:01:24;;;;;;;13.10;5.70;;;;;;;;;;5026042;28;20383;-53
2023/10/14 05:03:55;;;;;;;16.13;5.57;;;;;;;;;;5011615;28;20026;-52
2023/10/14 05:06:21;;;;;;;15.93;5.57;;;;;;;;;;5011422;28;20021;-57
2023/10/14 05:08:55;;;;;;;16.17;6.47;;;;;;;;;;5011358;28;20484;-55
2023/10/14 05:11:25;;;;;;;22.92;6.43;;;;;;;;;;5011505;28;20153;-57
2023/10/14 05:14:08;;;;;;;14.85;5.40;;;;;;;;;;5011467;28;20022;-53
2023/10/14 05:16:53;;;;;;;18.20;5.47;;;;;;;;;;4998253;28;20025;-55
2023/10/14 05:19:30;;;;;;;18.15;5.25;;;;;;;;;;5011188;28;20014;-53
2023/10/14 05:22:02;;;;;;;16.40;5.95;;;;;;;;;;5011287;28;20030;-56
2023/10/14 05:24:28;;;;;;;17.55;6.00;;;;;;;;;;5011425;28;20594;-54
2023/10/14 05:27:01;;;;;;;17.80;5.75;;;;;;;;;;5010939;28;20395;-55
2023/10/14 05:29:27;;;;;;;16.63;5.90;;;;;;;;;;5014283;28;20030;-54
2023/10/14 05:32:04;;;;;;;19.85;6.28;;;;;;;;;;5015069;28;20077;-51
2023/10/14 05:34:32;;;;;;;14.82;6.63;;;;;;;;;;4997787;28;20503;-54
2023/10/14 05:36:58;;;;;;;15.85;6.00;;;;;;;;;;5013174;28;20050;-54
2023/10/14 05:39:25;;;;;;;16.25;5.28;;;;;;;;;;5007573;28;20022;-56
2023/10/14 05:41:58;;;;;;;13.40;6.10;;;;;;;;;;5015169;28;20022;-55
2023/10/14 05:44:27;;;;;;;16.30;5.72;;;;;;;;;;5013753;28;20025;-56
2023/10/14 05:46:53;;;;;;;14.63;5.03;;;;;;;;;;5013675;28;20384;-57
2023/10/14 05:49:24;;;;;;;16.95;5.00;;;;;;;;;;5003390;28;20022;-50
2023/10/14 05:51:50;;;;;;;16.92;5.00;;;;;;;;;;4995028;28;20029;-48
2023/10/14 05:54:16;;;;;;;18.80;5.18;;;;;;;;;;5010345;28;20041;-55
2023/10/14 05:56:43;;;;;;;18.55;5.50;;;;;;;;;;5014575;28;20022;-57
2023/10/14 05:59:10;;;;;;;12.75;4.70;;;;;;;;;;5013068;28;20511;-54
2023/10/14 06:01:37;;;;;;;17.60;6.00;;;;;;;;;;5014446;28;20021;-51
2023/10/14 06:04:03;;;;;;;20.27;6.15;;;;;;;;;;5012929;28;20068;-52
2023/10/14 06:06:31;;;;;;;14.85;4.72;;;;;;;;;;5002232;28;20479;-52
2023/10/14 06:09:00;;;;;;;17.17;5.10;;;;;;;;;;5014013;28;20068;-54
2023/10/14 06:11:26;;;;;;;;;;;;;;;;;;5014871;28;20518;-54
2023/10/14 06:13:52;;;;;;;14.63;5.25;;;;;;;;;;5006489;28;19906;-50
2023/10/14 06:16:18;;;;;;;14.23;5.47;;;;;;;;;;5012755;28;20036;-55
2023/10/14 06:18:47;;;;;;;18.60;5.50;;;;;;;;;;5014148;28;20108;-56
2023/10/14 06:21:15;;;;;;;18.20;6.05;;;;;;;;;;5013959;28;20574;-55
2023/10/14 06:23:47;;;;;;;22.92;4.93;;;;;;;;;;5009234;28;20483;-54
2023/10/14 06:26:13;;;;;;;16.42;4.90;;;;;;;;;;5014022;28;20064;-53
2023/10/14 06:28:40;;;;;;;17.38;5.25;;;;;;;;;;5013835;28;20456;-55
2023/10/14 06:31:06;;;;;;;13.73;4.60;;;;;;;;;;5013684;28;20033;-55
2023/10/14 06:33:32;;;;;;;14.95;4.70;;;;;;;;;;5014015;28;20033;-56
2023/10/14 06:36:03;;;;;;;15.38;4.55;;;;;;;;;;5013905;28;20030;-53
2023/10/14 06:38:29;;;;;;;15.32;5.35;;;;;;;;;;5013176;28;20603;-50
2023/10/14 06:41:01;;;;;;;15.40;5.07;;;;;;;;;;5013400;28;20030;-54
2023/10/14 06:43:28;;;;;;;16.63;5.22;;;;;;;;;;5013895;28;20041;-52
2023/10/14 06:45:54;;;;;;;14.80;4.80;;;;;;;;;;5006956;28;20038;-56
2023/10/14 06:48:20;;;;;;;15.60;5.25;;;;;;;;;;5005220;28;20058;-56
2023/10/14 06:50:49;;;;;;;23.17;6.15;;;;;;;;;;5008877;28;20029;-54
2023/10/14 06:53:18;;;;;;;19.38;5.07;;;;;;;;;;5013517;28;20021;-50
2023/10/14 06:55:44;;;;;;;25.33;6.07;;;;;;;;;;5012113;28;20022;-55
2023/10/14 06:58:11;;;;;;;18.05;5.35;;;;;;;;;;4993157;28;20123;-54
2023/10/14 07:00:38;;;;;;;18.27;4.88;;;;;;;;;;5022717;28;20503;-54
2023/10/14 07:03:07;;;;;;;16.98;5.70;;;;;;;;;;5013249;28;20104;-54
2023/10/14 07:05:56;;;;;;;18.55;6.80;;;;;;;;;;5013200;28;20045;-52
2023/10/14 07:08:23;;;;;;;15.90;5.03;;;;;;;;;;5011776;28;20022;-52
2023/10/14 07:10:53;;;;;;;18.83;5.85;;;;;;;;;;5012958;28;20033;-53
2023/10/14 07:13:23;;;;;;;13.93;5.25;;;;;;;;;;5009897;28;20041;-57
2023/10/14 07:15:49;;;;;;;18.73;5.38;;;;;;;;;;5007737;28;20034;-56
2023/10/14 07:18:23;;;;;;;17.77;6.03;;;;;;;;;;5012707;28;20077;-55
2023/10/14 07:20:56;;;;;;;15.93;5.32;;;;;;;;;;5011482;28;20096;-55
2023/10/14 07:23:22;;;;;;;17.60;6.38;;;;;;;;;;4994689;28;20488;-53
2023/10/14 07:25:48;;;;;;;15.30;5.60;;;;;;;;;;5012857;28;20057;-51
2023/10/14 07:28:14;;;;;;;17.92;6.20;;;;;;;;;;5012698;28;20060;-54
2023/10/14 07:30:46;;;;;;;19.70;6.45;;;;;;;;;;5012586;28;20534;-51
2023/10/14 07:33:12;;;;;;;17.40;6.00;;;;;;;;;;5011211;28;20118;-53
2023/10/14 07:35:40;;;;;;;15.63;6.45;;;;;;;;;;5012577;28;20024;-58
2023/10/14 07:38:06;;;;;;;20.45;6.20;;;;;;;;;;5012607;28;20030;-58
2023/10/14 07:40:34;;;;;;;15.85;6.15;;;;;;;;;;5012485;28;20018;-55
2023/10/14 07:43:13;;;;;;;25.38;8.23;;;;;;;;;;5012297;28;20026;-57
2023/10/14 07:45:43;;;;;;;17.83;7.80;;;;;;;;;;5012377;28;20074;-58
2023/10/14 07:48:09;;;;;;;20.48;7.20;;;;;;;;;;5010694;28;20025;-58
2023/10/14 07:50:39;;;;;;;19.15;7.72;;;;;;;;;;5001792;28;20026;-52
2023/10/14 07:53:08;;;;;;;16.77;7.00;;;;;;;;;;5009496;28;20025;-57
2023/10/14 07:55:41;;;;;;;15.90;7.10;;;;;;;;;;5006052;28;20415;-57
2023/10/14 07:58:13;;;;;;;16.30;7.60;;;;;;;;;;5012121;28;20038;-58
2023/10/14 08:00:40;;;;;;;17.92;7.03;;;;;;;;;;5010594;28;20018;-58
2023/10/14 08:03:07;;;;;;;16.33;7.38;;;;;;;;;;5011918;28;20402;-58
2023/10/14 08:05:38;;;;;;;16.65;7.25;;;;;;;;;;5003950;28;20471;-58
2023/10/14 08:08:06;;;;;;;18.17;8.00;;;;;;;;;;5010677;28;20034;-62
2023/10/14 08:10:32;;;;;;;16.02;7.65;;;;;;;;;;5011990;28;20479;-55
2023/10/14 08:13:05;;;;;;;16.58;7.95;;;;;;;;;;5088364;27;19912;-59
2023/10/14 08:15:32;;;;;;;18.55;8.40;;;;;;;;;;5088429;28;20020;-56
2023/10/14 08:17:58;;;;;;;25.30;10.52;;;;;;;;;;5081334;28;20032;-57
2023/10/14 08:20:26;;;;;;;20.52;8.57;;;;;;;;;;5067865;28;20088;-55
2023/10/14 08:22:53;;;;;;;19.15;8.95;;;;;;;;;;5068225;28;20132;-59
2023/10/14 08:25:21;;;;;;;16.23;7.97;;;;;;;;;;5068172;28;20029;-55
2023/10/14 08:27:47;;;;;;;22.00;9.57;;;;;;;;;;5067943;28;20094;-54
2023/10/14 08:30:13;;;;;;;15.93;8.48;;;;;;;;;;5064990;28;20486;-54
2023/10/14 08:32:40;;;;;;;20.80;8.55;;;;;;;;;;5067777;28;20035;-58
2023/10/14 08:35:15;;;;;;;16.52;8.50;;;;;;;;;;5067636;28;20025;-59
2023/10/14 08:37:47;;;;;;;17.02;8.18;;;;;;;;;;5067531;28;20032;-56
2023/10/14 08:40:17;;;;;;;19.08;8.40;;;;;;;;;;5067203;28;20031;-54
2023/10/14 08:42:50;;;;;;;15.77;8.40;;;;;;;;;;5066317;28;20063;-56
2023/10/14 08:45:20;;;;;;;21.30;8.60;;;;;;;;;;5066336;28;20052;-52
2023/10/14 08:47:50;;;;;;;18.42;9.05;;;;;;;;;;5067987;28;20033;-53
2023/10/14 08:50:16;;;;;;;15.98;8.85;;;;;;;;;;5067304;28;20466;-54
2023/10/14 08:52:45;;;;;;;18.60;8.77;;;;;;;;;;5067823;28;20086;-53
2023/10/14 08:55:15;;;;;;;21.52;9.57;;;;;;;;;;5067758;28;20024;-55
2023/10/14 08:57:42;;;;;;;16.33;8.90;;;;;;;;;;5067572;28;20045;-55
2023/10/14 09:00:12;;;;;;;19.40;9.75;;;;;;;;;;5067156;28;20017;-51
2023/10/14 09:02:38;;;;;;;15.50;8.70;;;;;;;;;;5067654;28;20104;-50
2023/10/14 09:05:05;;;;;;;22.13;9.52;;;;;;;;;;5066298;28;20025;-54
2023/10/14 09:07:32;;;;;;;22.63;9.98;;;;;;;;;;5067443;28;20025;-53
2023/10/14 09:09:58;;;;;;;15.77;8.23;;;;;;;;;;5066289;28;20029;-55
2023/10/14 09:12:25;;;;;;;16.63;8.77;;;;;;;;;;5082609;28;20036;-53
2023/10/14 09:14:51;;;;;;;19.70;8.70;;;;;;;;;;5088100;28;20032;-54
2023/10/14 09:17:17;;;;;;;20.60;9.00;;;;;;;;;;5069540;28;20095;-48
2023/10/14 09:19:47;;;;;;;20.58;9.60;;;;;;;;;;5087272;28;20469;-52
2023/10/14 09:22:24;;;;;;;18.13;9.30;;;;;;;;;;5068768;28;20024;-49
2023/10/14 09:24:53;;;;;;;18.55;8.90;;;;;;;;;;5073476;28;20024;-55
2023/10/14 09:27:20;;;;;;;25.27;10.00;;;;;;;;;;5073794;28;20104;-51
2023/10/14 09:29:46;;;;;;;17.92;9.18;;;;;;;;;;5073590;28;20052;-54
2023/10/14 09:32:12;;;;;;;18.35;9.10;;;;;;;;;;5073584;28;20040;-56
2023/10/14 09:34:42;;;;;;;16.73;9.05;;;;;;;;;;5073795;28;20027;-54
2023/10/14 09:37:10;;;;;;;19.67;11.40;;;;;;;;;;5074079;28;20041;-55
2023/10/14 09:39:39;;;;;;;18.27;9.83;;;;;;;;;;5073255;28;20042;-54
2023/10/14 09:42:07;;;;;;;17.25;9.50;;;;;;;;;;5055456;28;20036;-50
2023/10/14 09:44:33;;;;;;;18.35;9.35;;;;;;;;;;5073429;28;20025;-54
2023/10/14 09:47:00;;;;;;;17.42;9.82;;;;;;;;;;5073540;28;20122;-53
2023/10/14 09:49:26;;;;;;;19.20;9.68;;;;;;;;;;5073365;28;20017;-55
2023/10/14 09:51:54;;;;;;;19.52;9.82;;;;;;;;;;5073435;28;20028;-52
2023/10/14 09:54:21;;;;;;;18.30;8.70;;;;;;;;;;5073464;28;20078;-53
2023/10/14 09:56:49;;;;;;;18.38;9.25;;;;;;;;;;5073299;28;20048;-53
2023/10/14 09:59:16;;;;;;;16.48;9.27;;;;;;;;;;5073224;28;20021;-53
2023/10/14 10:01:43;;;;;;;20.75;9.82;;;;;;;;;;5055323;28;20040;-53
2023/10/14 10:04:14;;;;;;;16.08;10.07;;;;;;;;;;5055431;28;20497;-53
2023/10/14 10:07:04;;;;;;;18.83;10.10;;;;;;;;;;5073366;28;20032;-53
2023/10/14 10:09:57;;;;;;;21.15;10.40;;;;;;;;;;5054966;28;20029;-55
2023/10/14 10:12:24;;;;;;;19.08;10.13;;;;;;;;;;5054907;28;20098;-53
2023/10/14 10:14:57;;;;;;;19.17;9.95;;;;;;;;;;5072772;28;20025;-50
2023/10/14 10:17:24;;;;;;;17.33;9.30;;;;;;;;;;5071592;28;20060;-57
2023/10/14 10:20:01;;;;;;;17.77;9.15;;;;;;;;;;5071628;28;20017;-52
2023/10/14 10:22:39;;;;;;;18.50;9.52;;;;;;;;;;5073141;28;20428;-54
2023/10/14 10:25:09;;;;;;;20.27;10.07;;;;;;;;;;5072850;28;20031;-54
2023/10/14 10:27:35;;;;;;;22.35;11.70;;;;;;;;;;5072674;28;20020;-53
2023/10/14 10:30:04;;;;;;;20.80;11.85;;;;;;;;;;5072563;28;20438;-53
2023/10/14 10:32:33;;;;;;;18.10;9.55;;;;;;;;;;5072593;28;20149;-54
2023/10/14 10:35:05;;;;;;;20.13;10.00;;;;;;;;;;5071223;28;20017;-51
2023/10/14 10:37:34;;;;;;;17.05;9.25;;;;;;;;;;5049711;28;20028;-54
2023/10/14 10:40:05;;;;;;;20.75;9.57;;;;;;;;;;5066387;28;20017;-54
2023/10/14 10:42:31;;;;;;;20.15;9.77;;;;;;;;;;5072116;28;20499;-49
2023/10/14 10:44:57;;;;;;;17.63;9.27;;;;;;;;;;5067665;28;20040;-53
2023/10/14 10:47:23;;;;;;;19.08;10.57;;;;;;;;;;5063887;28;20090;-51
2023/10/14 10:49:49;;;;;;;18.80;9.90;;;;;;;;;;5071207;28;20012;-54
2023/10/14 10:52:16;;;;;;;23.33;11.77;;;;;;;;;;5071301;28;20043;-54
2023/10/14 10:54:46;;;;;;;16.20;9.75;;;;;;;;;;5053750;28;20039;-55
2023/10/14 10:57:13;;;;;;;19.15;9.40;;;;;;;;;;5053912;28;20025;-49
2023/10/14 10:59:40;;;;;;;19.55;10.05;;;;;;;;;;5072109;28;20074;-55
2023/10/14 11:02:07;;;;;;;18.67;10.35;;;;;;;;;;5071909;28;20020;-49
2023/10/14 11:04:33;;;;;;;18.65;10.50;;;;;;;;;;4700531;28;10000175;-57
2023/10/14 11:07:00;;;;;;;16.00;9.40;;;;;;;;;;5068530;28;20556;-55
2023/10/14 11:09:26;;;;;;;17.90;10.77;;;;;;;;;;5068364;28;20081;-54
2023/10/14 11:12:00;;;;;;;19.08;9.80;;;;;;;;;;5068100;28;20031;-54
2023/10/14 11:14:26;;;;;;;23.08;10.30;;;;;;;;;;5068640;28;20169;-55
2023/10/14 11:16:56;;;;;;;19.50;10.65;;;;;;;;;;5068494;28;20021;-54
2023/10/14 11:19:22;;;;;;;17.23;10.90;;;;;;;;;;5042475;28;20421;-55
2023/10/14 11:21:49;;;;;;;21.27;10.32;;;;;;;;;;5050482;28;20016;-53
2023/10/14 11:24:16;;;;;;;20.27;11.07;;;;;;;;;;5050157;28;20033;-52
2023/10/14 11:26:44;;;;;;;17.08;10.15;;;;;;;;;;5068312;28;20020;-55
2023/10/14 11:29:10;;;;;;;17.35;10.23;;;;;;;;;;5071203;22;20073;-53
2023/10/14 11:31:39;;;;;;;18.25;10.07;;;;;;;;;;5063719;28;20758;-52
2023/10/14 11:34:05;;;;;;;15.85;10.25;;;;;;;;;;5048522;28;20028;-49
2023/10/14 11:36:31;;;;;;;17.65;10.43;;;;;;;;;;5048973;28;20718;-52
2023/10/14 11:39:00;;;;;;;17.08;10.02;;;;;;;;;;5048279;28;20109;-56
2023/10/14 11:41:27;;;;;;;18.98;10.95;;;;;;;;;;5048357;28;20040;-59
2023/10/14 11:43:53;;;;;;;17.33;10.52;;;;;;;;;;5047042;28;20021;-53
2023/10/14 11:46:19;;;;;;;18.90;11.93;;;;;;;;;;5048187;28;20564;-54
2023/10/14 11:48:47;;;;;;;16.52;10.70;;;;;;;;;;5048502;28;20104;-59
2023/10/14 11:51:16;;;;;;;16.45;10.88;;;;;;;;;;5047673;28;20025;-51
2023/10/14 11:53:46;;;;;;;17.88;11.38;;;;;;;;;;5048438;28;20017;-58
2023/10/14 11:56:13;;;;;;;19.83;11.88;;;;;;;;;;5048149;28;20032;-57
2023/10/14 11:58:43;;;;;;;19.58;11.38;;;;;;;;;;5047830;28;20332;-57
2023/10/14 12:01:09;;;;;;;20.38;10.90;;;;;;;;;;5047320;28;20044;-55
2023/10/14 12:03:39;;;;;;;16.27;11.18;;;;;;;;;;5047674;28;20099;-54
2023/10/14 12:06:07;;;;;;;18.45;11.60;;;;;;;;;;5047914;28;20445;-58
2023/10/14 12:08:36;;;;;;;20.42;11.60;;;;;;;;;;5047994;28;20017;-54
2023/10/14 12:11:08;;;;;;;17.40;12.15;;;;;;;;;;5047503;28;20033;-55
2023/10/14 12:13:34;;;;;;;17.20;10.88;;;;;;;;;;5048309;28;20082;-55
2023/10/14 12:16:07;;;;;;;21.85;11.20;;;;;;;;;;5048013;28;20025;-53
2023/10/14 12:18:36;;;;;;;17.23;10.43;;;;;;;;;;5047869;28;20468;-56
2023/10/14 12:21:03;;;;;;;18.85;10.70;;;;;;;;;;5047785;28;20502;-52
2023/10/14 12:23:32;;;;;;;18.55;12.45;;;;;;;;;;5048437;28;20025;-53
2023/10/14 12:26:00;;;;;;;20.45;11.15;;;;;;;;;;5046897;28;20045;-53
2023/10/14 12:28:27;;;;;;;16.10;10.70;;;;;;;;;;5047475;28;20025;-53
2023/10/14 12:30:56;;;;;;;21.40;11.60;;;;;;;;;;5047666;28;20788;-50
2023/10/14 12:33:24;;;;;;;14.98;9.98;;;;;;;;;;5047845;28;20121;-48
2023/10/14 12:35:53;;;;;;;17.00;11.07;;;;;;;;;;5047706;28;20009;-55
2023/10/14 12:38:20;;;;;;;25.27;22.98;;;;;;;;;;5045966;28;20017;-55
2023/10/14 12:40:49;;;;;;;26.45;23.92;;;;;;;;;;5050930;28;20021;-54
2023/10/14 12:43:27;;;;;;;27.13;24.52;;;;;;;;;;5047702;28;20021;-56
2023/10/14 12:45:53;;;;;;;26.55;24.05;;;;;;;;;;5047814;28;20711;-57
2023/10/14 12:48:24;;;;;;;25.95;23.55;;;;;;;;;;5047407;28;20321;-55
2023/10/14 12:50:51;;;;;;;23.67;21.38;;;;;;;;;;5047584;28;20048;-56
2023/10/14 12:53:17;;;;;;;23.60;21.20;;;;;;;;;;5047376;28;20498;-56
2023/10/14 12:55:46;;;;;;;23.42;21.23;;;;;;;;;;5047115;28;20036;-58
2023/10/14 12:58:12;;;;;;;22.52;20.42;;;;;;;;;;5048032;28;20036;-56
2023/10/14 13:00:39;;;;;;;22.30;20.20;;;;;;;;;;5051328;28;20021;-54
2023/10/14 13:03:09;;;;;;;23.70;21.30;;;;;;;;;;5050818;28;20029;-52
2023/10/14 13:05:35;;;;;;;23.15;21.05;;;;;;;;;;5050732;28;20032;-51
2023/10/14 13:08:02;;;;;;;21.20;18.98;;;;;;;;;;5050618;28;20112;-57
2023/10/14 13:10:28;;;;;;;21.20;18.73;;;;;;;;;;5049748;28;20025;-57
2023/10/14 13:12:58;;;;;;;20.00;18.00;;;;;;;;;;5050654;28;20086;-56
2023/10/14 13:15:26;;;;;;;19.70;17.60;;;;;;;;;;5050967;28;20086;-57
2023/10/14 13:17:58;;;;;;;19.48;17.48;;;;;;;;;;5050869;28;20021;-54
2023/10/14 13:20:28;;;;;;;19.08;16.23;;;;;;;;;;5050342;28;20397;-56
2023/10/14 13:22:54;;;;;;;19.08;15.70;;;;;;;;;;5050707;28;20113;-51
2023/10/14 13:25:21;;;;;;;20.65;15.70;;;;;;;;;;5050937;28;20029;-58
2023/10/14 13:27:49;;;;;;;18.00;15.00;;;;;;;;;;5049681;28;20070;-57
2023/10/14 13:30:16;;;;;;;16.73;14.65;;;;;;;;;;5050772;28;20044;-56
2023/10/14 13:32:42;;;;;;;16.88;13.48;;;;;;;;;;5050812;28;20394;-56
2023/10/14 13:35:09;;;;;;;18.85;12.38;;;;;;;;;;5040921;28;20026;-57
2023/10/14 13:37:35;;;;;;;25.10;16.85;;;;;;;;;;5049627;28;20024;-53
2023/10/14 13:40:01;;;;;;;30.42;27.63;;;;;;;;;;5050148;28;20032;-59
2023/10/14 13:42:27;;;;;;;29.45;26.85;;;;;;;;;;5050804;28;20029;-56
2023/10/14 13:44:53;;;;;;;27.83;25.33;;;;;;;;;;5053385;28;20021;-54
2023/10/14 13:47:19;;;;;;;25.27;22.77;;;;;;;;;;5051816;28;20048;-57
2023/10/14 13:49:45;;;;;;;23.50;21.30;;;;;;;;;;5051682;28;20169;-56
2023/10/14 13:52:16;;;;;;;23.52;21.25;;;;;;;;;;5051749;28;20033;-58
2023/10/14 13:54:43;;;;;;;23.90;21.80;;;;;;;;;;5051954;28;20343;-56
2023/10/14 13:57:11;;;;;;;24.13;21.67;;;;;;;;;;5049378;28;20029;-54
2023/10/14 13:59:38;;;;;;;23.77;21.48;;;;;;;;;;5048917;28;20045;-56
2023/10/14 14:02:04;;;;;;;23.30;21.00;;;;;;;;;;5048969;28;20029;-56
2023/10/14 14:04:33;;;;;;;25.15;21.20;;;;;;;;;;5050092;28;20032;-58
2023/10/14 14:07:01;;;;;;;22.88;20.63;;;;;;;;;;5049922;28;20033;-56
2023/10/14 14:09:30;;;;;;;23.58;21.08;;;;;;;;;;5050011;28;20033;-60
2023/10/14 14:11:56;;;;;;;23.27;20.88;;;;;;;;;;5048712;28;20032;-58
2023/10/14 14:14:25;;;;;;;23.58;21.10;;;;;;;;;;5047639;28;20035;-54
2023/10/14 14:16:51;;;;;;;22.80;20.70;;;;;;;;;;5050082;28;20017;-57
2023/10/14 14:19:19;;;;;;;22.02;19.92;;;;;;;;;;5049508;28;20055;-55
2023/10/14 14:21:47;;;;;;;20.73;17.17;;;;;;;;;;5049993;28;20036;-57
2023/10/14 14:24:14;;;;;;;19.63;16.98;;;;;;;;;;5050633;28;20466;-54
2023/10/14 14:26:41;;;;;;;17.90;16.10;;;;;;;;;;5050286;28;20025;-55
2023/10/14 14:29:09;;;;;;;18.25;16.20;;;;;;;;;;5049812;28;20037;-54
2023/10/14 14:31:36;;;;;;;19.05;15.68;;;;;;;;;;5050139;28;20390;-55
2023/10/14 14:34:02;;;;;;;16.25;13.13;;;;;;;;;;5049748;28;20142;-57
2023/10/14 14:36:28;;;;;;;17.60;13.32;;;;;;;;;;5049441;28;20025;-57
2023/10/14 14:38:54;;;;;;;19.67;12.32;;;;;;;;;;5048114;28;20041;-53
2023/10/14 14:41:25;;;;;;;17.75;12.50;;;;;;;;;;5032770;28;20024;-56
2023/10/14 14:43:52;;;;;;;17.27;11.35;;;;;;;;;;5048892;28;20032;-55
2023/10/14 14:46:18;;;;;;;19.63;11.10;;;;;;;;;;5049544;28;20124;-57
2023/10/14 14:48:44;;;;;;;16.60;10.93;;;;;;;;;;5049282;28;20044;-57
2023/10/14 14:51:10;;;;;;;19.67;11.40;;;;;;;;;;5049068;28;20039;-55
2023/10/14 14:53:37;;;;;;;20.15;11.52;;;;;;;;;;5050010;28;20017;-55
2023/10/14 14:56:09;;;;;;;16.98;10.90;;;;;;;;;;5048205;28;20025;-56
2023/10/14 14:58:36;;;;;;;17.33;9.95;;;;;;;;;;5047910;28;20505;-54
2023/10/14 15:01:03;;;;;;;16.52;10.50;;;;;;;;;;5049839;28;20104;-55